Terminal Aerodrome Forecast
Issued by NWS Billings, MT

Home | Current Version | Previous Version | Graphics & Text | Print | Product List | Glossary On
Versions: 1 2 3 4 5 6 7 8 9 10 11 12 13 14 15 16 17
000
FTUS45 KBYZ 230438 AAB
TAFMLS
TAF AMD
KMLS 230438Z 2305/2324 06007KT P6SM SCT007 BKN015 OVC025
     FM231800 05010KT P6SM SCT007 BKN020=

USA.gov is the U.S. government's official web portal to all federal, state and local government web resources and services.